Time;durP1;ratioP1;P1;durP2;ratioP2;P2;SDS_P1;SDS_P2;PMS_P1;PMS_P2;Temp;Humidity;BMP_temperature;BMP_pressure;BME280_temperature;BME280_humidity;BME280_pressure;Samples;Min_cycle;Max_cycle;Signal;HPM_P1;HPM_P2
2019/04/08 00:00:22;;;;;;;15.65;14;;;;;;;10.53;79.94531;94290.19;;;;
2019/04/08 00:01:25;;;;;;;15.65;14;;;;;;;10.53;79.94531;94290.19;;;;
2019/04/08 00:02:29;;;;;;;16;14.3;;;;;;;10.5;80.04688;94291.13;;;;
2019/04/08 00:03:30;;;;;;;16;14.3;;;;;;;10.5;80.04688;94291.13;;;;
2019/04/08 00:04:31;;;;;;;16;14.3;;;;;;;10.5;80.04688;94291.13;;;;
2019/04/08 00:05:32;;;;;;;16;14.3;;;;;;;10.5;80.04688;94291.13;;;;
2019/04/08 00:06:33;;;;;;;16;14.3;;;;;;;10.5;80.04688;94291.13;;;;
2019/04/08 00:07:35;;;;;;;15;13.45;;;;;;;10.44;80.2373;94284.59;;;;
2019/04/08 00:08:36;;;;;;;15;13.45;;;;;;;10.44;80.2373;94284.59;;;;
2019/04/08 00:09:37;;;;;;;15.75;14.05;;;;;;;10.42;80.39453;94292.13;;;;
2019/04/08 00:10:38;;;;;;;15.75;14.05;;;;;;;10.42;80.39453;94292.13;;;;
2019/04/08 00:11:39;;;;;;;15.75;14.05;;;;;;;10.42;80.39453;94292.13;;;;
2019/04/08 00:12:40;;;;;;;15.2;13.6;;;;;;;10.41;80.52051;94292.27;;;;
2019/04/08 00:13:42;;;;;;;15.2;13.6;;;;;;;10.41;80.52051;94292.27;;;;
2019/04/08 00:14:43;;;;;;;16.05;14.1;;;;;;;10.4;80.68848;94290.63;;;;
2019/04/08 00:15:44;;;;;;;16.05;14.1;;;;;;;10.4;80.68848;94290.63;;;;
2019/04/08 00:16:45;;;;;;;16.05;14.1;;;;;;;10.4;80.68848;94290.63;;;;
2019/04/08 00:17:46;;;;;;;16.4;14.1;;;;;;;10.39;80.79492;94292.53;;;;
2019/04/08 00:18:47;;;;;;;16.4;14.1;;;;;;;10.39;80.79492;94292.53;;;;
2019/04/08 00:19:49;;;;;;;16.4;14.1;;;;;;;10.39;80.79492;94292.53;;;;
2019/04/08 00:20:50;;;;;;;16.4;14.1;;;;;;;10.39;80.79492;94292.53;;;;
2019/04/08 00:21:51;;;;;;;16.4;14.1;;;;;;;10.39;80.79492;94292.53;;;;
2019/04/08 00:22:52;;;;;;;16.4;14.1;;;;;;;10.39;80.79492;94292.53;;;;
2019/04/08 00:23:53;;;;;;;16.4;14.1;;;;;;;10.39;80.79492;94292.53;;;;
2019/04/08 00:24:55;;;;;;;16.4;14.1;;;;;;;10.39;80.79492;94292.53;;;;
2019/04/08 00:25:56;;;;;;;16.4;14.1;;;;;;;10.39;80.79492;94292.53;;;;
2019/04/08 00:26:57;;;;;;;16.4;14.1;;;;;;;10.39;80.79492;94292.53;;;;
2019/04/08 00:27:58;;;;;;;15.35;13.15;;;;;;;10.05;79.78223;94283.59;;;;
2019/04/08 00:28:59;;;;;;;15.35;13.15;;;;;;;10.05;79.78223;94283.59;;;;
2019/04/08 00:30:00;;;;;;;15.35;13.15;;;;;;;10.05;79.78223;94283.59;;;;
2019/04/08 00:31:03;;;;;;;16.05;13.95;;;;;;;10.03;80.34473;94277.63;;;;
2019/04/08 00:32:04;;;;;;;16.05;13.95;;;;;;;10.03;80.34473;94277.63;;;;
2019/04/08 00:33:05;;;;;;;16.05;13.95;;;;;;;10.03;80.34473;94277.63;;;;
2019/04/08 00:34:06;;;;;;;16.8;14.95;;;;;;;10.06;80.71094;94278.87;;;;
2019/04/08 00:35:07;;;;;;;16.8;14.95;;;;;;;10.06;80.71094;94278.87;;;;
2019/04/08 00:36:08;;;;;;;17.8;15.75;;;;;;;10.08;81.02539;94278.08;;;;
2019/04/08 00:37:09;;;;;;;17.8;15.75;;;;;;;10.08;81.02539;94278.08;;;;
2019/04/08 00:38:11;;;;;;;17.8;15.75;;;;;;;10.08;81.02539;94278.08;;;;
2019/04/08 00:39:12;;;;;;;17.05;15.15;;;;;;;10.09;81.14453;94277.44;;;;
2019/04/08 00:40:13;;;;;;;17.05;15.15;;;;;;;10.09;81.14453;94277.44;;;;
2019/04/08 00:41:14;;;;;;;17.95;15.8;;;;;;;10.1;81.28516;94279.61;;;;
2019/04/08 00:42:15;;;;;;;17.95;15.8;;;;;;;10.1;81.28516;94279.61;;;;
2019/04/08 00:43:17;;;;;;;17.95;15.8;;;;;;;10.1;81.28516;94279.61;;;;
2019/04/08 00:44:18;;;;;;;18.35;15.65;;;;;;;10.1;81.42383;94282.31;;;;
2019/04/08 00:45:19;;;;;;;18.35;15.65;;;;;;;10.1;81.42383;94282.31;;;;
2019/04/08 00:46:20;;;;;;;18.35;15.65;;;;;;;10.1;81.42383;94282.31;;;;
2019/04/08 00:47:21;;;;;;;17.85;15.95;;;;;;;10.09;81.66699;94292.27;;;;
2019/04/08 00:48:22;;;;;;;17.85;15.95;;;;;;;10.09;81.66699;94292.27;;;;
2019/04/08 00:49:24;;;;;;;17.85;15.95;;;;;;;10.09;81.66699;94292.27;;;;
2019/04/08 00:50:25;;;;;;;17.85;15.95;;;;;;;10.09;81.66699;94292.27;;;;
2019/04/08 00:51:26;;;;;;;17.85;15.95;;;;;;;10.09;81.66699;94292.27;;;;
2019/04/08 00:52:27;;;;;;;17.85;15.95;;;;;;;10.09;81.66699;94292.27;;;;
2019/04/08 00:53:28;;;;;;;17.85;15.95;;;;;;;10.09;81.66699;94292.27;;;;
2019/04/08 00:54:29;;;;;;;17.85;15.95;;;;;;;10.09;81.66699;94292.27;;;;
2019/04/08 00:55:31;;;;;;;17.85;15.95;;;;;;;10.09;81.66699;94292.27;;;;
2019/04/08 00:56:32;;;;;;;17.85;15.95;;;;;;;10.09;81.66699;94292.27;;;;
2019/04/08 00:57:33;;;;;;;19.25;15.8;;;;;;;9.78;80.69238;94302.48;;;;
2019/04/08 00:58:34;;;;;;;19.25;15.8;;;;;;;9.78;80.69238;94302.48;;;;
2019/04/08 00:59:35;;;;;;;17.5;15.6;;;;;;;9.79;81.34375;94310.85;;;;
2019/04/08 01:00:36;;;;;;;17.5;15.6;;;;;;;9.79;81.34375;94310.85;;;;
2019/04/08 01:01:38;;;;;;;17.5;15.6;;;;;;;9.79;81.34375;94310.85;;;;
2019/04/08 01:02:39;;;;;;;18.85;16.85;;;;;;;9.85;81.70801;94312.94;;;;
2019/04/08 01:03:40;;;;;;;18.85;16.85;;;;;;;9.85;81.70801;94312.94;;;;
2019/04/08 01:04:41;;;;;;;18.85;16.85;;;;;;;9.85;81.70801;94312.94;;;;
2019/04/08 01:05:42;;;;;;;18;15.9;;;;;;;9.91;81.96387;94312.84;;;;
2019/04/08 01:06:44;;;;;;;18;15.9;;;;;;;9.91;81.96387;94312.84;;;;
2019/04/08 01:07:45;;;;;;;18.45;16.5;;;;;;;9.97;82.01758;94314.11;;;;
2019/04/08 01:08:46;;;;;;;18.45;16.5;;;;;;;9.97;82.01758;94314.11;;;;
2019/04/08 01:09:47;;;;;;;18.45;16.5;;;;;;;9.97;82.01758;94314.11;;;;
2019/04/08 01:10:48;;;;;;;18.5;16.15;;;;;;;10.01;82.16309;94318.34;;;;
2019/04/08 01:11:50;;;;;;;18.5;16.15;;;;;;;10.01;82.16309;94318.34;;;;
2019/04/08 01:12:51;;;;;;;18.5;16.15;;;;;;;10.01;82.16309;94318.34;;;;
2019/04/08 01:13:52;;;;;;;18.5;16.15;;;;;;;10.01;82.16309;94318.34;;;;
2019/04/08 01:14:54;;;;;;;18.5;16.15;;;;;;;10.01;82.16309;94318.34;;;;
2019/04/08 01:15:55;;;;;;;18.5;16.15;;;;;;;10.01;82.16309;94318.34;;;;
2019/04/08 01:16:56;;;;;;;18.5;16.15;;;;;;;10.01;82.16309;94318.34;;;;
2019/04/08 01:17:57;;;;;;;18.5;16.15;;;;;;;10.01;82.16309;94318.34;;;;
2019/04/08 01:18:59;;;;;;;18.5;16.15;;;;;;;10.01;82.16309;94318.34;;;;
2019/04/08 01:20:00;;;;;;;18.5;16.15;;;;;;;10.01;82.16309;94318.34;;;;
2019/04/08 01:21:01;;;;;;;18.35;16;;;;;;;9.8;80.94238;94315.56;;;;
2019/04/08 01:22:02;;;;;;;18.35;16;;;;;;;9.8;80.94238;94315.56;;;;
2019/04/08 01:23:04;;;;;;;18.35;16;;;;;;;9.8;80.94238;94315.56;;;;
2019/04/08 01:24:05;;;;;;;19.85;16.6;;;;;;;9.82;81.68164;94321.51;;;;
2019/04/08 01:25:06;;;;;;;19.85;16.6;;;;;;;9.82;81.68164;94321.51;;;;
2019/04/08 01:26:07;;;;;;;20.15;16.4;;;;;;;9.89;81.96094;94323.47;;;;
2019/04/08 01:27:08;;;;;;;20.15;16.4;;;;;;;9.89;81.96094;94323.47;;;;
2019/04/08 01:28:10;;;;;;;20.15;16.4;;;;;;;9.89;81.96094;94323.47;;;;
2019/04/08 01:29:11;;;;;;;20.15;17.25;;;;;;;9.96;82.17578;94317.49;;;;
2019/04/08 01:30:13;;;;;;;20.15;17.25;;;;;;;9.96;82.17578;94317.49;;;;
2019/04/08 01:31:14;;;;;;;20.15;17.25;;;;;;;9.96;82.17578;94317.49;;;;
2019/04/08 01:32:15;;;;;;;18.8;16.55;;;;;;;10.01;82.29102;94322.39;;;;
2019/04/08 01:33:17;;;;;;;18.8;16.55;;;;;;;10.01;82.29102;94322.39;;;;
2019/04/08 01:34:18;;;;;;;18.8;16.55;;;;;;;10.01;82.29102;94322.39;;;;
2019/04/08 01:35:19;;;;;;;18.8;16.55;;;;;;;10.01;82.29102;94322.39;;;;
2019/04/08 01:36:20;;;;;;;18.8;16.55;;;;;;;10.01;82.29102;94322.39;;;;
2019/04/08 01:37:21;;;;;;;18.8;16.55;;;;;;;10.01;82.29102;94322.39;;;;
2019/04/08 01:38:23;;;;;;;18.8;16.55;;;;;;;10.01;82.29102;94322.39;;;;
2019/04/08 01:39:24;;;;;;;18.8;16.55;;;;;;;10.01;82.29102;94322.39;;;;
2019/04/08 01:40:25;;;;;;;18.8;16.55;;;;;;;10.01;82.29102;94322.39;;;;
2019/04/08 01:41:26;;;;;;;18.8;16.55;;;;;;;10.01;82.29102;94322.39;;;;
2019/04/08 01:42:28;;;;;;;18.8;16.55;;;;;;;10.01;82.29102;94322.39;;;;
2019/04/08 01:43:29;;;;;;;18.8;16.55;;;;;;;10.01;82.29102;94322.39;;;;
2019/04/08 01:44:30;;;;;;;18.8;16.55;;;;;;;10.01;82.29102;94322.39;;;;
2019/04/08 01:45:32;;;;;;;19.8;16.7;;;;;;;9.86;81.1875;94330.32;;;;
2019/04/08 01:46:33;;;;;;;19.8;16.7;;;;;;;9.86;81.1875;94330.32;;;;
2019/04/08 01:47:34;;;;;;;20.9;17;;;;;;;9.85;81.78125;94322.49;;;;
2019/04/08 01:48:35;;;;;;;20.9;17;;;;;;;9.85;81.78125;94322.49;;;;
2019/04/08 01:49:36;;;;;;;20.9;17;;;;;;;9.85;81.78125;94322.49;;;;
2019/04/08 01:50:38;;;;;;;20.9;17;;;;;;;9.85;81.78125;94322.49;;;;
2019/04/08 01:51:39;;;;;;;20.9;17;;;;;;;9.85;81.78125;94322.49;;;;
2019/04/08 01:52:40;;;;;;;20.9;17;;;;;;;9.85;81.78125;94322.49;;;;
2019/04/08 01:53:41;;;;;;;20.9;17;;;;;;;9.85;81.78125;94322.49;;;;
2019/04/08 01:54:42;;;;;;;20.9;17;;;;;;;9.85;81.78125;94322.49;;;;
2019/04/08 01:55:44;;;;;;;20.9;17;;;;;;;9.85;81.78125;94322.49;;;;
2019/04/08 01:56:45;;;;;;;20.9;17;;;;;;;9.85;81.78125;94322.49;;;;
2019/04/08 01:57:47;;;;;;;20.9;17;;;;;;;9.85;81.78125;94322.49;;;;
2019/04/08 01:58:48;;;;;;;18.45;16.5;;;;;;;9.68;81.37598;94333.92;;;;
2019/04/08 01:59:49;;;;;;;18.45;16.5;;;;;;;9.68;81.37598;94333.92;;;;
2019/04/08 02:00:50;;;;;;;18.45;16.5;;;;;;;9.68;81.37598;94333.92;;;;
2019/04/08 02:01:52;;;;;;;18.45;16.5;;;;;;;9.68;81.37598;94333.92;;;;
2019/04/08 02:02:53;;;;;;;18.45;16.5;;;;;;;9.68;81.37598;94333.92;;;;
2019/04/08 02:03:54;;;;;;;18.45;16.5;;;;;;;9.68;81.37598;94333.92;;;;
2019/04/08 02:04:55;;;;;;;18.45;16.5;;;;;;;9.68;81.37598;94333.92;;;;
2019/04/08 02:05:57;;;;;;;18.45;16.5;;;;;;;9.68;81.37598;94333.92;;;;
2019/04/08 02:06:58;;;;;;;18.45;16.5;;;;;;;9.68;81.37598;94333.92;;;;
2019/04/08 02:07:59;;;;;;;18.45;16.5;;;;;;;9.68;81.37598;94333.92;;;;
2019/04/08 02:09:01;;;;;;;18.8;16.8;;;;;;;9.59;81.12598;94342.03;;;;
2019/04/08 02:10:03;;;;;;;18.8;16.8;;;;;;;9.59;81.12598;94342.03;;;;
2019/04/08 02:11:04;;;;;;;18.8;16.8;;;;;;;9.59;81.12598;94342.03;;;;
2019/04/08 02:12:05;;;;;;;18.8;16.8;;;;;;;9.59;81.12598;94342.03;;;;
2019/04/08 02:13:06;;;;;;;18.8;16.8;;;;;;;9.59;81.12598;94342.03;;;;
2019/04/08 02:14:08;;;;;;;18.8;16.8;;;;;;;9.59;81.12598;94342.03;;;;
2019/04/08 02:15:09;;;;;;;18.8;16.8;;;;;;;9.59;81.12598;94342.03;;;;
2019/04/08 02:16:11;;;;;;;18.8;16.8;;;;;;;9.59;81.12598;94342.03;;;;
2019/04/08 02:17:12;;;;;;;18.8;16.8;;;;;;;9.59;81.12598;94342.03;;;;
2019/04/08 02:18:13;;;;;;;18.8;16.8;;;;;;;9.59;81.12598;94342.03;;;;
2019/04/08 02:19:14;;;;;;;18.8;16.8;;;;;;;9.59;81.12598;94342.03;;;;
2019/04/08 02:20:16;;;;;;;18.8;16.8;;;;;;;9.59;81.12598;94342.03;;;;
2019/04/08 02:21:50;;;;;;;18.8;16.8;;;;;;;9.59;81.12598;94342.03;;;;
2019/04/08 02:22:51;;;;;;;17.55;15.7;;;;;;;9.62;80.88672;94343.42;;;;
2019/04/08 02:23:52;;;;;;;17.55;15.7;;;;;;;9.62;80.88672;94343.42;;;;
2019/04/08 02:24:54;;;;;;;17.55;15.7;;;;;;;9.62;80.88672;94343.42;;;;
2019/04/08 02:25:55;;;;;;;17.55;15.7;;;;;;;9.62;80.88672;94343.42;;;;
2019/04/08 02:26:56;;;;;;;17.55;15.7;;;;;;;9.62;80.88672;94343.42;;;;
2019/04/08 02:27:58;;;;;;;17.55;15.7;;;;;;;9.62;80.88672;94343.42;;;;
2019/04/08 02:28:59;;;;;;;17.55;15.7;;;;;;;9.62;80.88672;94343.42;;;;
2019/04/08 02:30:00;;;;;;;17.55;15.7;;;;;;;9.62;80.88672;94343.42;;;;
2019/04/08 02:31:02;;;;;;;17.55;15.7;;;;;;;9.62;80.88672;94343.42;;;;
2019/04/08 02:32:11;;;;;;;17.55;15.7;;;;;;;9.62;80.88672;94343.42;;;;
2019/04/08 02:33:23;;;;;;;17.7;15.8;;;;;;;9.43;80.90527;94349.25;;;;
2019/04/08 02:34:25;;;;;;;17.7;15.8;;;;;;;9.43;80.90527;94349.25;;;;
2019/04/08 02:35:26;;;;;;;17.7;15.8;;;;;;;9.43;80.90527;94349.25;;;;
2019/04/08 02:36:27;;;;;;;17.7;15.8;;;;;;;9.43;80.90527;94349.25;;;;
2019/04/08 02:37:28;;;;;;;17.7;15.8;;;;;;;9.43;80.90527;94349.25;;;;
2019/04/08 02:38:29;;;;;;;17.7;15.8;;;;;;;9.43;80.90527;94349.25;;;;
2019/04/08 02:39:31;;;;;;;17.7;15.8;;;;;;;9.43;80.90527;94349.25;;;;
2019/04/08 02:40:32;;;;;;;17.7;15.8;;;;;;;9.43;80.90527;94349.25;;;;
2019/04/08 02:41:33;;;;;;;17.7;15.8;;;;;;;9.43;80.90527;94349.25;;;;
2019/04/08 02:42:34;;;;;;;17.7;15.8;;;;;;;9.43;80.90527;94349.25;;;;
2019/04/08 02:43:36;;;;;;;17.75;15.85;;;;;;;9.38;80.79883;94350.55;;;;
2019/04/08 02:44:37;;;;;;;17.75;15.85;;;;;;;9.38;80.79883;94350.55;;;;
2019/04/08 02:45:38;;;;;;;17.75;15.85;;;;;;;9.38;80.79883;94350.55;;;;
2019/04/08 02:46:39;;;;;;;17.75;15.85;;;;;;;9.38;80.79883;94350.55;;;;
2019/04/08 02:47:41;;;;;;;17.75;15.85;;;;;;;9.38;80.79883;94350.55;;;;
2019/04/08 02:48:42;;;;;;;17.75;15.85;;;;;;;9.38;80.79883;94350.55;;;;
2019/04/08 02:49:43;;;;;;;17.75;15.85;;;;;;;9.38;80.79883;94350.55;;;;
2019/04/08 02:50:44;;;;;;;17.75;15.85;;;;;;;9.38;80.79883;94350.55;;;;
2019/04/08 02:51:45;;;;;;;17.75;15.85;;;;;;;9.38;80.79883;94350.55;;;;
2019/04/08 02:52:46;;;;;;;17.75;15.85;;;;;;;9.38;80.79883;94350.55;;;;
2019/04/08 02:53:48;;;;;;;17.75;15.85;;;;;;;9.38;80.79883;94350.55;;;;
2019/04/08 02:54:49;;;;;;;18.15;16.2;;;;;;;9.29;80.69531;94357.01;;;;
2019/04/08 02:55:50;;;;;;;18.15;16.2;;;;;;;9.29;80.69531;94357.01;;;;
2019/04/08 02:56:51;;;;;;;18.15;16.2;;;;;;;9.29;80.69531;94357.01;;;;
2019/04/08 02:57:52;;;;;;;18.15;16.2;;;;;;;9.29;80.69531;94357.01;;;;
2019/04/08 02:58:53;;;;;;;18.15;16.2;;;;;;;9.29;80.69531;94357.01;;;;
2019/04/08 02:59:55;;;;;;;18.15;16.2;;;;;;;9.29;80.69531;94357.01;;;;
2019/04/08 03:00:56;;;;;;;18.15;16.2;;;;;;;9.29;80.69531;94357.01;;;;
2019/04/08 03:01:57;;;;;;;18.15;16.2;;;;;;;9.29;80.69531;94357.01;;;;
2019/04/08 03:02:58;;;;;;;18.15;16.2;;;;;;;9.29;80.69531;94357.01;;;;
2019/04/08 03:03:59;;;;;;;18.15;16.2;;;;;;;9.29;80.69531;94357.01;;;;
2019/04/08 03:05:01;;;;;;;18.15;16.2;;;;;;;9.29;80.69531;94357.01;;;;
2019/04/08 03:06:02;;;;;;;18.15;16.2;;;;;;;9.29;80.69531;94357.01;;;;
2019/04/08 03:07:03;;;;;;;18.15;16.2;;;;;;;9.29;80.69531;94357.01;;;;
2019/04/08 03:08:04;;;;;;;18.15;16.2;;;;;;;9.29;80.69531;94357.01;;;;
2019/04/08 03:09:06;;;;;;;18.15;16.2;;;;;;;9.29;80.69531;94357.01;;;;
2019/04/08 03:10:07;;;;;;;18.15;16.2;;;;;;;9.29;80.69531;94357.01;;;;
2019/04/08 03:11:08;;;;;;;18.15;16.2;;;;;;;9.29;80.69531;94357.01;;;;
2019/04/08 03:12:09;;;;;;;18.15;16.2;;;;;;;9.29;80.69531;94357.01;;;;
2019/04/08 03:13:10;;;;;;;18.15;16.2;;;;;;;9.29;80.69531;94357.01;;;;
2019/04/08 03:14:12;;;;;;;18.15;16.2;;;;;;;9.29;80.69531;94357.01;;;;
2019/04/08 03:15:13;;;;;;;18.15;16.2;;;;;;;9.29;80.69531;94357.01;;;;
2019/04/08 03:16:14;;;;;;;17.15;14.75;;;;;;;9.22;80.74805;94358.15;;;;
2019/04/08 03:17:15;;;;;;;17.15;14.75;;;;;;;9.22;80.74805;94358.15;;;;
2019/04/08 03:18:16;;;;;;;17.15;14.75;;;;;;;9.22;80.74805;94358.15;;;;
2019/04/08 03:19:18;;;;;;;17.15;14.75;;;;;;;9.22;80.74805;94358.15;;;;
2019/04/08 03:20:19;;;;;;;17.15;14.75;;;;;;;9.22;80.74805;94358.15;;;;
2019/04/08 03:21:20;;;;;;;17.15;14.75;;;;;;;9.22;80.74805;94358.15;;;;
2019/04/08 03:22:21;;;;;;;17.15;14.75;;;;;;;9.22;80.74805;94358.15;;;;
2019/04/08 03:23:22;;;;;;;17.15;14.75;;;;;;;9.22;80.74805;94358.15;;;;
2019/04/08 03:24:23;;;;;;;17.15;14.75;;;;;;;9.22;80.74805;94358.15;;;;
2019/04/08 03:25:25;;;;;;;17.15;14.75;;;;;;;9.22;80.74805;94358.15;;;;
2019/04/08 03:26:26;;;;;;;16.7;14.6;;;;;;;9.15;81.22461;94357.93;;;;
2019/04/08 03:27:27;;;;;;;16.7;14.6;;;;;;;9.15;81.22461;94357.93;;;;
2019/04/08 03:28:28;;;;;;;16.7;14.6;;;;;;;9.15;81.22461;94357.93;;;;
2019/04/08 03:29:29;;;;;;;16.7;14.6;;;;;;;9.15;81.22461;94357.93;;;;
2019/04/08 03:30:30;;;;;;;16.7;14.6;;;;;;;9.15;81.22461;94357.93;;;;
2019/04/08 03:31:32;;;;;;;16.7;14.6;;;;;;;9.15;81.22461;94357.93;;;;
2019/04/08 03:32:33;;;;;;;16.7;14.6;;;;;;;9.15;81.22461;94357.93;;;;
2019/04/08 03:33:34;;;;;;;16.7;14.6;;;;;;;9.15;81.22461;94357.93;;;;
2019/04/08 03:34:35;;;;;;;16.7;14.6;;;;;;;9.15;81.22461;94357.93;;;;
2019/04/08 03:35:36;;;;;;;16.7;14.6;;;;;;;9.15;81.22461;94357.93;;;;
2019/04/08 03:36:37;;;;;;;16;14.4;;;;;;;9.03;81.45898;94372.99;;;;
2019/04/08 03:37:39;;;;;;;16;14.4;;;;;;;9.03;81.45898;94372.99;;;;
2019/04/08 03:38:40;;;;;;;16;14.4;;;;;;;9.03;81.45898;94372.99;;;;
2019/04/08 03:39:41;;;;;;;16;14.4;;;;;;;9.03;81.45898;94372.99;;;;
2019/04/08 03:40:42;;;;;;;16;14.4;;;;;;;9.03;81.45898;94372.99;;;;
2019/04/08 03:41:43;;;;;;;16;14.4;;;;;;;9.03;81.45898;94372.99;;;;
2019/04/08 03:42:44;;;;;;;16;14.4;;;;;;;9.03;81.45898;94372.99;;;;
2019/04/08 03:43:46;;;;;;;16;14.4;;;;;;;9.03;81.45898;94372.99;;;;
2019/04/08 03:44:47;;;;;;;16;14.4;;;;;;;9.03;81.45898;94372.99;;;;
2019/04/08 03:45:48;;;;;;;16;14.4;;;;;;;9.03;81.45898;94372.99;;;;
2019/04/08 03:46:49;;;;;;;16;14.4;;;;;;;9.03;81.45898;94372.99;;;;
2019/04/08 03:47:50;;;;;;;15.15;13.65;;;;;;;8.99;81.35449;94379.41;;;;
2019/04/08 03:48:51;;;;;;;15.15;13.65;;;;;;;8.99;81.35449;94379.41;;;;
2019/04/08 03:49:53;;;;;;;15.15;13.65;;;;;;;8.99;81.35449;94379.41;;;;
2019/04/08 03:50:54;;;;;;;15.15;13.65;;;;;;;8.99;81.35449;94379.41;;;;
2019/04/08 03:51:55;;;;;;;15.15;13.65;;;;;;;8.99;81.35449;94379.41;;;;
2019/04/08 03:52:56;;;;;;;15.15;13.65;;;;;;;8.99;81.35449;94379.41;;;;
2019/04/08 03:53:57;;;;;;;15.15;13.65;;;;;;;8.99;81.35449;94379.41;;;;
2019/04/08 03:54:58;;;;;;;15.15;13.65;;;;;;;8.99;81.35449;94379.41;;;;
2019/04/08 03:56:00;;;;;;;15.15;13.65;;;;;;;8.99;81.35449;94379.41;;;;
2019/04/08 03:57:01;;;;;;;15.15;13.65;;;;;;;8.99;81.35449;94379.41;;;;
2019/04/08 03:58:02;;;;;;;15.35;13.75;;;;;;;8.91;81.43652;94384.78;;;;
2019/04/08 03:59:03;;;;;;;15.35;13.75;;;;;;;8.91;81.43652;94384.78;;;;
2019/04/08 04:00:04;;;;;;;15.35;13.75;;;;;;;8.91;81.43652;94384.78;;;;
2019/04/08 04:01:05;;;;;;;15.35;13.75;;;;;;;8.91;81.43652;94384.78;;;;
2019/04/08 04:02:07;;;;;;;15.35;13.75;;;;;;;8.91;81.43652;94384.78;;;;
2019/04/08 04:03:08;;;;;;;15.35;13.75;;;;;;;8.91;81.43652;94384.78;;;;
2019/04/08 04:04:21;;;;;;;15.35;13.75;;;;;;;8.91;81.43652;94384.78;;;;
2019/04/08 04:09:48;;;;;;;15.65;14;;;;;;;8.9;81.58301;94378.2;;;;
2019/04/08 04:10:49;;;;;;;15.65;14;;;;;;;8.9;81.58301;94378.2;;;;
2019/04/08 04:11:50;;;;;;;15.65;14;;;;;;;8.9;81.58301;94378.2;;;;
2019/04/08 04:12:51;;;;;;;15.65;14;;;;;;;8.9;81.58301;94378.2;;;;
2019/04/08 04:13:52;;;;;;;15.65;14;;;;;;;8.9;81.58301;94378.2;;;;
2019/04/08 04:14:53;;;;;;;15.65;14;;;;;;;8.9;81.58301;94378.2;;;;
2019/04/08 04:15:55;;;;;;;15.65;14;;;;;;;8.9;81.58301;94378.2;;;;
2019/04/08 04:16:56;;;;;;;15.65;14;;;;;;;8.9;81.58301;94378.2;;;;
2019/04/08 04:17:57;;;;;;;15.65;14;;;;;;;8.9;81.58301;94378.2;;;;
2019/04/08 04:18:58;;;;;;;15.65;14;;;;;;;8.9;81.58301;94378.2;;;;
2019/04/08 04:20:00;;;;;;;15.75;14.1;;;;;;;8.81;81.89551;94383.72;;;;
2019/04/08 04:21:01;;;;;;;15.75;14.1;;;;;;;8.81;81.89551;94383.72;;;;
2019/04/08 04:22:02;;;;;;;15.75;14.1;;;;;;;8.81;81.89551;94383.72;;;;
2019/04/08 04:23:03;;;;;;;15.75;14.1;;;;;;;8.81;81.89551;94383.72;;;;
2019/04/08 04:24:04;;;;;;;15.75;14.1;;;;;;;8.81;81.89551;94383.72;;;;
2019/04/08 04:25:06;;;;;;;15.75;14.1;;;;;;;8.81;81.89551;94383.72;;;;
2019/04/08 04:26:07;;;;;;;15.75;14.1;;;;;;;8.81;81.89551;94383.72;;;;
2019/04/08 04:27:08;;;;;;;15.75;14.1;;;;;;;8.81;81.89551;94383.72;;;;
2019/04/08 04:28:09;;;;;;;15.75;14.1;;;;;;;8.81;81.89551;94383.72;;;;
2019/04/08 04:29:10;;;;;;;15.75;14.1;;;;;;;8.81;81.89551;94383.72;;;;
2019/04/08 04:30:12;;;;;;;14.65;13.1;;;;;;;8.8;81.81934;94389.73;;;;
2019/04/08 04:31:13;;;;;;;14.65;13.1;;;;;;;8.8;81.81934;94389.73;;;;
2019/04/08 04:32:14;;;;;;;14.65;13.1;;;;;;;8.8;81.81934;94389.73;;;;
2019/04/08 04:33:15;;;;;;;14.65;13.1;;;;;;;8.8;81.81934;94389.73;;;;
2019/04/08 04:34:16;;;;;;;14.65;13.1;;;;;;;8.8;81.81934;94389.73;;;;
2019/04/08 04:35:17;;;;;;;14.65;13.1;;;;;;;8.8;81.81934;94389.73;;;;
2019/04/08 04:36:19;;;;;;;14.65;13.1;;;;;;;8.8;81.81934;94389.73;;;;
2019/04/08 04:37:20;;;;;;;14.65;13.1;;;;;;;8.8;81.81934;94389.73;;;;
2019/04/08 04:38:21;;;;;;;14.65;13.1;;;;;;;8.8;81.81934;94389.73;;;;
2019/04/08 04:39:22;;;;;;;14.65;13.1;;;;;;;8.8;81.81934;94389.73;;;;
2019/04/08 04:40:23;;;;;;;13.55;12.15;;;;;;;8.71;81.75;94414.9;;;;
2019/04/08 04:41:24;;;;;;;13.55;12.15;;;;;;;8.71;81.75;94414.9;;;;
2019/04/08 04:42:26;;;;;;;13.55;12.15;;;;;;;8.71;81.75;94414.9;;;;
2019/04/08 04:43:27;;;;;;;13.55;12.15;;;;;;;8.71;81.75;94414.9;;;;
2019/04/08 04:44:28;;;;;;;13.55;12.15;;;;;;;8.71;81.75;94414.9;;;;
2019/04/08 04:45:29;;;;;;;13.55;12.15;;;;;;;8.71;81.75;94414.9;;;;
2019/04/08 04:46:30;;;;;;;13.55;12.15;;;;;;;8.71;81.75;94414.9;;;;
2019/04/08 04:47:31;;;;;;;13.55;12.15;;;;;;;8.71;81.75;94414.9;;;;
2019/04/08 04:48:32;;;;;;;13.55;12.15;;;;;;;8.71;81.75;94414.9;;;;
2019/04/08 04:49:34;;;;;;;13.55;12.15;;;;;;;8.71;81.75;94414.9;;;;
2019/04/08 04:50:35;;;;;;;13.55;12.15;;;;;;;8.71;81.75;94414.9;;;;
2019/04/08 04:51:36;;;;;;;14.95;13.45;;;;;;;8.72;82.0498;94421.94;;;;
2019/04/08 04:52:37;;;;;;;14.95;13.45;;;;;;;8.72;82.0498;94421.94;;;;
2019/04/08 04:53:38;;;;;;;14.95;13.45;;;;;;;8.72;82.0498;94421.94;;;;
2019/04/08 04:54:40;;;;;;;14.95;13.45;;;;;;;8.72;82.0498;94421.94;;;;
2019/04/08 04:55:41;;;;;;;14.95;13.45;;;;;;;8.72;82.0498;94421.94;;;;
2019/04/08 04:56:42;;;;;;;14.95;13.45;;;;;;;8.72;82.0498;94421.94;;;;
2019/04/08 04:57:43;;;;;;;14.95;13.45;;;;;;;8.72;82.0498;94421.94;;;;
2019/04/08 04:58:44;;;;;;;14.95;13.45;;;;;;;8.72;82.0498;94421.94;;;;
2019/04/08 04:59:45;;;;;;;14.95;13.45;;;;;;;8.72;82.0498;94421.94;;;;
2019/04/08 05:00:47;;;;;;;14.95;13.45;;;;;;;8.72;82.0498;94421.94;;;;
2019/04/08 05:01:48;;;;;;;15.35;13.8;;;;;;;8.66;81.89063;94429.63;;;;
2019/04/08 05:02:49;;;;;;;15.35;13.8;;;;;;;8.66;81.89063;94429.63;;;;
2019/04/08 05:03:50;;;;;;;15.35;13.8;;;;;;;8.66;81.89063;94429.63;;;;
2019/04/08 05:04:51;;;;;;;15.35;13.8;;;;;;;8.66;81.89063;94429.63;;;;
2019/04/08 05:05:53;;;;;;;15.35;13.8;;;;;;;8.66;81.89063;94429.63;;;;
2019/04/08 05:06:54;;;;;;;15.35;13.8;;;;;;;8.66;81.89063;94429.63;;;;
2019/04/08 05:07:55;;;;;;;15.35;13.8;;;;;;;8.66;81.89063;94429.63;;;;
2019/04/08 05:08:56;;;;;;;15.35;13.8;;;;;;;8.66;81.89063;94429.63;;;;
2019/04/08 05:09:57;;;;;;;15.35;13.8;;;;;;;8.66;81.89063;94429.63;;;;
2019/04/08 05:10:58;;;;;;;15.35;13.8;;;;;;;8.66;81.89063;94429.63;;;;
2019/04/08 05:12:00;;;;;;;16.5;14.7;;;;;;;8.65;82.26953;94444.12;;;;
2019/04/08 05:13:01;;;;;;;16.5;14.7;;;;;;;8.65;82.26953;94444.12;;;;
2019/04/08 05:14:02;;;;;;;16.5;14.7;;;;;;;8.65;82.26953;94444.12;;;;
2019/04/08 05:15:03;;;;;;;16.5;14.7;;;;;;;8.65;82.26953;94444.12;;;;
2019/04/08 05:16:05;;;;;;;16.5;14.7;;;;;;;8.65;82.26953;94444.12;;;;
2019/04/08 05:17:06;;;;;;;16.5;14.7;;;;;;;8.65;82.26953;94444.12;;;;
2019/04/08 05:18:07;;;;;;;16.5;14.7;;;;;;;8.65;82.26953;94444.12;;;;
2019/04/08 05:19:08;;;;;;;16.5;14.7;;;;;;;8.65;82.26953;94444.12;;;;
2019/04/08 05:20:09;;;;;;;16.5;14.7;;;;;;;8.65;82.26953;94444.12;;;;
2019/04/08 05:21:11;;;;;;;16.5;14.7;;;;;;;8.65;82.26953;94444.12;;;;
2019/04/08 05:22:12;;;;;;;16.5;14.7;;;;;;;8.65;82.26953;94444.12;;;;
2019/04/08 05:23:13;;;;;;;16.5;14.7;;;;;;;8.65;82.26953;94444.12;;;;
2019/04/08 05:24:14;;;;;;;16.5;14.7;;;;;;;8.65;82.26953;94444.12;;;;
2019/04/08 05:25:15;;;;;;;16.5;14.7;;;;;;;8.65;82.26953;94444.12;;;;
2019/04/08 05:26:16;;;;;;;16.5;14.7;;;;;;;8.65;82.26953;94444.12;;;;
2019/04/08 05:27:18;;;;;;;16.5;14.7;;;;;;;8.65;82.26953;94444.12;;;;
2019/04/08 05:28:19;;;;;;;16.5;14.7;;;;;;;8.65;82.26953;94444.12;;;;
2019/04/08 05:29:20;;;;;;;16.5;14.7;;;;;;;8.65;82.26953;94444.12;;;;
2019/04/08 05:30:21;;;;;;;16.5;14.7;;;;;;;8.65;82.26953;94444.12;;;;
2019/04/08 05:31:22;;;;;;;16.5;14.7;;;;;;;8.65;82.26953;94444.12;;;;
2019/04/08 05:32:24;;;;;;;16.5;14.7;;;;;;;8.65;82.26953;94444.12;;;;
2019/04/08 05:33:25;;;;;;;15.8;14.15;;;;;;;8.74;82.18945;94444.56;;;;
2019/04/08 05:34:26;;;;;;;15.8;14.15;;;;;;;8.74;82.18945;94444.56;;;;
2019/04/08 05:35:27;;;;;;;15.8;14.15;;;;;;;8.74;82.18945;94444.56;;;;
2019/04/08 05:36:28;;;;;;;15.8;14.15;;;;;;;8.74;82.18945;94444.56;;;;
2019/04/08 05:37:29;;;;;;;15.8;14.15;;;;;;;8.74;82.18945;94444.56;;;;
2019/04/08 05:38:30;;;;;;;15.8;14.15;;;;;;;8.74;82.18945;94444.56;;;;
2019/04/08 05:39:32;;;;;;;15.8;14.15;;;;;;;8.74;82.18945;94444.56;;;;
2019/04/08 05:40:33;;;;;;;15.8;14.15;;;;;;;8.74;82.18945;94444.56;;;;
2019/04/08 05:41:34;;;;;;;15.8;14.15;;;;;;;8.74;82.18945;94444.56;;;;
2019/04/08 05:42:35;;;;;;;15.8;14.15;;;;;;;8.74;82.18945;94444.56;;;;
2019/04/08 05:43:36;;;;;;;15.8;14.15;;;;;;;8.74;82.18945;94444.56;;;;
2019/04/08 05:44:38;;;;;;;15.55;13.9;;;;;;;8.67;82.26367;94451.43;;;;
2019/04/08 05:45:39;;;;;;;15.55;13.9;;;;;;;8.67;82.26367;94451.43;;;;
2019/04/08 05:46:40;;;;;;;15.55;13.9;;;;;;;8.67;82.26367;94451.43;;;;
2019/04/08 05:47:52;;;;;;;15.55;13.9;;;;;;;8.67;82.26367;94451.43;;;;
2019/04/08 05:48:59;;;;;;;15.55;13.9;;;;;;;8.67;82.26367;94451.43;;;;
2019/04/08 05:50:06;;;;;;;15.55;13.9;;;;;;;8.67;82.26367;94451.43;;;;
2019/04/08 06:01:39;;;;;;;15.55;13.9;;;;;;;8.68;82.56152;94465.7;;;;
2019/04/08 06:02:49;;;;;;;15.55;13.9;;;;;;;8.68;82.56152;94465.7;;;;
2019/04/08 06:04:12;;;;;;;15.55;13.9;;;;;;;8.68;82.56152;94465.7;;;;